createdAt,value
2023-05-16T00:00:06.912Z,15.36
2023-05-16T00:01:39.695Z,15.35
2023-05-16T00:03:12.433Z,15.32
2023-05-16T00:04:44.074Z,15.31
2023-05-16T00:06:15.936Z,15.29
2023-05-16T00:07:48.404Z,15.27
2023-05-16T00:09:20.179Z,15.28
2023-05-16T00:10:51.724Z,15.30
2023-05-16T00:12:23.250Z,15.31
2023-05-16T00:13:55.465Z,15.29
2023-05-16T00:15:27.070Z,15.27
2023-05-16T00:16:59.259Z,15.27
2023-05-16T00:18:30.967Z,15.28
2023-05-16T00:20:11.294Z,15.33
2023-05-16T00:21:44.959Z,15.35
2023-05-16T00:23:17.191Z,15.34
2023-05-16T00:24:48.752Z,15.35
2023-05-16T00:26:20.850Z,15.38
2023-05-16T00:27:52.659Z,15.39
2023-05-16T00:29:24.749Z,15.39
2023-05-16T00:30:56.859Z,15.42
2023-05-16T00:32:28.467Z,15.43
2023-05-16T00:34:00.339Z,15.43
2023-05-16T00:35:32.203Z,15.45
2023-05-16T00:37:03.736Z,15.43
2023-05-16T00:38:35.627Z,15.41
2023-05-16T00:40:07.951Z,15.45
2023-05-16T00:41:39.605Z,15.45
2023-05-16T00:43:11.182Z,15.47
2023-05-16T00:44:42.753Z,15.56
2023-05-16T00:46:14.269Z,15.65
2023-05-16T00:47:47.071Z,15.65
2023-05-16T00:49:18.629Z,15.67
2023-05-16T00:50:52.013Z,15.70
2023-05-16T00:52:23.683Z,15.74
2023-05-16T00:53:55.293Z,15.77
2023-05-16T00:55:27.669Z,15.81
2023-05-16T00:56:59.718Z,15.84
2023-05-16T00:58:32.389Z,15.85
2023-05-16T01:00:06.946Z,15.84
2023-05-16T01:01:38.732Z,15.83
2023-05-16T01:03:11.360Z,15.82
2023-05-16T01:04:43.417Z,15.80
2023-05-16T01:06:15.164Z,15.80
2023-05-16T01:07:46.674Z,15.78
2023-05-16T01:09:19.616Z,15.83
2023-05-16T01:10:59.633Z,15.85
2023-05-16T01:12:49.526Z,15.81
2023-05-16T01:14:24.138Z,15.77
2023-05-16T01:16:16.062Z,15.77
2023-05-16T01:17:47.896Z,15.70
2023-05-16T01:19:19.799Z,15.67
2023-05-16T01:21:01.309Z,15.63
2023-05-16T01:22:37.588Z,15.69
2023-05-16T01:24:19.578Z,15.70
2023-05-16T01:25:51.125Z,15.69
2023-05-16T01:27:24.029Z,15.70
2023-05-16T01:28:56.420Z,15.64
2023-05-16T01:30:29.408Z,15.55
2023-05-16T01:32:01.561Z,15.47
2023-05-16T01:33:33.114Z,15.44
2023-05-16T01:35:04.828Z,15.33
2023-05-16T01:36:39.977Z,15.26
2023-05-16T01:38:14.577Z,15.23
2023-05-16T01:39:47.852Z,15.21
2023-05-16T01:41:22.219Z,15.21
2023-05-16T01:42:53.777Z,15.25
2023-05-16T01:44:28.005Z,15.28
2023-05-16T01:46:02.652Z,15.26
2023-05-16T01:47:34.528Z,15.24
2023-05-16T01:49:13.311Z,15.24
2023-05-16T01:50:46.698Z,15.24
2023-05-16T01:52:28.406Z,15.23
2023-05-16T01:54:01.904Z,15.24
2023-05-16T01:55:43.417Z,15.25
2023-05-16T01:57:14.976Z,15.24
2023-05-16T01:58:47.257Z,15.23
2023-05-16T02:00:19.393Z,15.23
2023-05-16T02:01:53.362Z,15.26
2023-05-16T02:03:25.282Z,15.26
2023-05-16T02:04:56.813Z,15.25
2023-05-16T02:06:28.646Z,15.29
2023-05-16T02:08:00.477Z,15.27
2023-05-16T02:09:32.039Z,15.22
2023-05-16T02:11:03.568Z,15.17
2023-05-16T02:12:35.170Z,15.15
2023-05-16T02:14:06.726Z,15.17
2023-05-16T02:15:38.261Z,15.18
2023-05-16T02:17:09.805Z,15.13
2023-05-16T02:18:41.557Z,15.11
2023-05-16T02:20:13.286Z,15.13
2023-05-16T02:21:45.074Z,15.12
2023-05-16T02:23:17.473Z,15.12
2023-05-16T02:24:49.011Z,15.15
2023-05-16T02:26:20.923Z,15.15
2023-05-16T02:27:52.432Z,15.16
2023-05-16T02:29:24.105Z,15.14
2023-05-16T02:30:59.358Z,15.14
2023-05-16T02:32:31.102Z,15.14
2023-05-16T02:34:02.933Z,15.16
2023-05-16T02:35:34.584Z,15.19
2023-05-16T02:37:06.182Z,15.23
2023-05-16T02:38:37.648Z,15.21
2023-05-16T02:40:09.483Z,15.18
2023-05-16T02:41:41.372Z,15.21
2023-05-16T02:43:12.985Z,15.21
2023-05-16T02:44:44.874Z,15.23
2023-05-16T02:46:26.652Z,15.20
2023-05-16T02:47:58.350Z,15.17
2023-05-16T02:49:30.248Z,15.15
2023-05-16T02:51:01.916Z,15.16
2023-05-16T02:52:33.513Z,15.10
2023-05-16T02:54:05.261Z,15.10
2023-05-16T02:55:37.584Z,15.11
2023-05-16T02:57:10.572Z,15.07
2023-05-16T02:58:42.295Z,15.04
2023-05-16T03:00:15.706Z,15.04
2023-05-16T03:01:48.807Z,15.02
2023-05-16T03:03:20.700Z,14.97
2023-05-16T03:04:52.397Z,14.98
2023-05-16T03:06:24.939Z,15.01
2023-05-16T03:07:57.285Z,15.04
2023-05-16T03:09:28.849Z,15.10
2023-05-16T03:11:01.399Z,15.15
2023-05-16T03:12:33.171Z,15.14
2023-05-16T03:14:04.692Z,15.16
2023-05-16T03:15:36.353Z,15.19
2023-05-16T03:17:08.009Z,15.19
2023-05-16T03:18:39.752Z,15.19
2023-05-16T03:20:12.270Z,15.20
2023-05-16T03:21:43.751Z,15.26
2023-05-16T03:23:15.462Z,15.29
2023-05-16T03:24:48.150Z,15.34
2023-05-16T03:26:19.691Z,15.39
2023-05-16T03:27:51.319Z,15.42
2023-05-16T03:29:22.922Z,15.41
2023-05-16T03:30:54.542Z,15.39
2023-05-16T03:32:26.288Z,15.32
2023-05-16T03:33:58.005Z,15.30
2023-05-16T03:35:30.399Z,15.32
2023-05-16T03:37:01.998Z,15.28
2023-05-16T03:38:33.545Z,15.23
2023-05-16T03:40:05.909Z,15.21
2023-05-16T03:41:38.146Z,15.24
2023-05-16T03:43:09.716Z,15.19
2023-05-16T03:44:41.460Z,15.18
2023-05-16T03:46:13.529Z,15.12
2023-05-16T03:47:45.402Z,15.09
2023-05-16T03:49:16.971Z,15.08
2023-05-16T03:50:49.835Z,15.09
2023-05-16T03:52:21.542Z,15.08
2023-05-16T03:53:53.419Z,15.10
2023-05-16T03:55:25.669Z,15.15
2023-05-16T03:56:57.504Z,15.17
2023-05-16T03:58:29.093Z,15.21
2023-05-16T04:00:01.171Z,15.25
2023-05-16T04:01:33.137Z,15.30
2023-05-16T04:03:04.962Z,15.31
2023-05-16T04:04:37.292Z,15.32
2023-05-16T04:06:08.985Z,15.27
2023-05-16T04:07:41.107Z,15.25
2023-05-16T04:09:12.793Z,15.24
2023-05-16T04:10:44.420Z,15.23
2023-05-16T04:12:16.021Z,15.17
2023-05-16T04:13:47.571Z,15.12
2023-05-16T04:15:19.151Z,15.09
2023-05-16T04:16:50.750Z,15.05
2023-05-16T04:18:22.239Z,15.03
2023-05-16T04:19:53.855Z,15.03
2023-05-16T04:21:25.684Z,15.07
2023-05-16T04:22:57.257Z,15.09
2023-05-16T04:24:29.891Z,15.10
2023-05-16T04:26:02.448Z,15.12
2023-05-16T04:27:33.951Z,15.13
2023-05-16T04:29:06.359Z,15.13
2023-05-16T04:30:38.545Z,15.10
2023-05-16T04:32:11.380Z,15.09
2023-05-16T04:33:43.164Z,15.12
2023-05-16T04:35:15.044Z,15.12
2023-05-16T04:36:47.396Z,15.16
2023-05-16T04:38:19.422Z,15.18
2023-05-16T04:39:51.643Z,15.24
2023-05-16T04:41:24.057Z,15.31
2023-05-16T04:42:55.717Z,15.34
2023-05-16T04:44:28.264Z,15.37
2023-05-16T04:45:59.830Z,15.34
2023-05-16T04:47:31.955Z,15.36
2023-05-16T04:49:03.739Z,15.42
2023-05-16T04:50:35.373Z,15.49
2023-05-16T04:52:08.508Z,15.58
2023-05-16T04:53:40.312Z,15.68
2023-05-16T04:55:12.180Z,15.75
2023-05-16T04:56:43.840Z,15.80
2023-05-16T04:58:15.343Z,15.83
2023-05-16T04:59:46.943Z,15.84
2023-05-16T05:01:18.802Z,15.84
2023-05-16T05:02:50.549Z,15.78
2023-05-16T05:04:22.823Z,15.75
2023-05-16T05:05:54.439Z,15.74
2023-05-16T05:07:28.753Z,15.77
2023-05-16T05:09:00.489Z,15.84
2023-05-16T05:10:32.094Z,15.85
2023-05-16T05:12:04.144Z,15.85
2023-05-16T05:13:36.153Z,15.81
2023-05-16T05:15:08.788Z,15.77
2023-05-16T05:16:41.496Z,15.71
2023-05-16T05:18:13.696Z,15.67
2023-05-16T05:19:45.453Z,15.68
2023-05-16T05:21:17.411Z,15.67
2023-05-16T05:22:49.262Z,15.67
2023-05-16T05:24:21.395Z,15.67
2023-05-16T05:25:54.704Z,15.70
2023-05-16T05:27:27.985Z,15.76
2023-05-16T05:29:05.301Z,15.81
2023-05-16T05:30:39.636Z,15.76
2023-05-16T05:32:12.938Z,15.77
2023-05-16T05:33:44.541Z,15.79
2023-05-16T05:35:16.199Z,15.80
2023-05-16T05:36:47.741Z,15.78
2023-05-16T05:38:19.303Z,15.81
2023-05-16T05:39:51.037Z,15.90
2023-05-16T05:41:22.794Z,15.97
2023-05-16T05:42:54.320Z,16.04
2023-05-16T05:44:25.795Z,16.09
2023-05-16T05:45:57.366Z,16.12
2023-05-16T05:47:28.989Z,16.11
2023-05-16T05:49:00.765Z,16.16
2023-05-16T05:50:32.233Z,16.20
2023-05-16T05:52:03.916Z,16.29
2023-05-16T05:53:35.939Z,16.37
2023-05-16T05:55:07.688Z,16.46
2023-05-16T05:56:39.876Z,16.51
2023-05-16T05:58:11.908Z,16.41
2023-05-16T05:59:44.091Z,16.39
2023-05-16T06:01:15.791Z,16.41
2023-05-16T06:02:47.579Z,16.44
2023-05-16T06:04:22.486Z,16.49
2023-05-16T06:05:54.562Z,16.49
2023-05-16T06:07:27.182Z,16.47
2023-05-16T06:08:59.686Z,16.49
2023-05-16T06:10:31.888Z,16.48
2023-05-16T06:12:04.326Z,16.53
2023-05-16T06:13:36.422Z,16.49
2023-05-16T06:15:09.038Z,16.46
2023-05-16T06:16:41.358Z,16.46
2023-05-16T06:18:13.082Z,16.45
2023-05-16T06:19:45.412Z,16.44
2023-05-16T06:21:17.160Z,16.48
2023-05-16T06:22:48.947Z,16.46
2023-05-16T06:24:20.800Z,16.42
2023-05-16T06:25:52.876Z,16.33
2023-05-16T06:27:25.208Z,16.25
2023-05-16T06:28:57.289Z,16.19
2023-05-16T06:30:29.031Z,16.17
2023-05-16T06:32:00.688Z,16.16
2023-05-16T06:33:32.971Z,16.14
2023-05-16T06:35:07.778Z,16.16
2023-05-16T06:36:39.415Z,16.20
2023-05-16T06:38:11.549Z,16.22
2023-05-16T06:39:43.320Z,16.26
2023-05-16T06:41:15.151Z,16.34
2023-05-16T06:42:46.994Z,16.45
2023-05-16T06:44:18.685Z,16.56
2023-05-16T06:45:50.482Z,16.67
2023-05-16T06:47:22.206Z,16.73
2023-05-16T06:48:54.321Z,16.75
2023-05-16T06:50:26.641Z,16.78
2023-05-16T06:51:58.335Z,16.77
2023-05-16T06:53:30.201Z,16.75
2023-05-16T06:55:02.195Z,16.80
2023-05-16T06:56:33.784Z,16.83
2023-05-16T06:58:05.445Z,16.97
2023-05-16T06:59:37.187Z,17.12
2023-05-16T07:01:08.860Z,17.25
2023-05-16T07:02:40.470Z,17.27
2023-05-16T07:04:12.483Z,17.27
2023-05-16T07:05:44.738Z,17.35
2023-05-16T07:07:16.402Z,17.41
2023-05-16T07:08:48.033Z,17.38
2023-05-16T07:10:20.092Z,17.32
2023-05-16T07:11:51.706Z,17.24
2023-05-16T07:13:23.491Z,17.20
2023-05-16T07:14:55.209Z,17.17
2023-05-16T07:16:28.836Z,17.15
2023-05-16T07:18:01.386Z,17.08
2023-05-16T07:19:33.230Z,17.02
2023-05-16T07:21:05.526Z,16.96
2023-05-16T07:22:37.836Z,16.92
2023-05-16T07:24:09.412Z,16.97
2023-05-16T07:25:41.359Z,17.04
2023-05-16T07:27:13.373Z,17.08
2023-05-16T07:28:45.222Z,17.14
2023-05-16T07:30:17.026Z,17.24
2023-05-16T07:31:48.920Z,17.36
2023-05-16T07:33:21.075Z,17.39
2023-05-16T07:34:52.934Z,17.53
2023-05-16T07:36:24.607Z,17.64
2023-05-16T07:37:56.314Z,17.77
2023-05-16T07:39:27.932Z,17.89
2023-05-16T07:41:10.032Z,17.96
2023-05-16T07:42:41.678Z,18.01
2023-05-16T07:44:13.721Z,18.00
2023-05-16T07:45:45.725Z,17.99
2023-05-16T07:47:17.839Z,18.07
2023-05-16T07:48:49.550Z,18.15
2023-05-16T07:50:21.199Z,18.13
2023-05-16T07:51:52.875Z,18.18
2023-05-16T07:53:24.539Z,18.10
2023-05-16T07:54:56.510Z,18.03
2023-05-16T07:56:28.150Z,18.03
2023-05-16T07:58:00.025Z,18.11
2023-05-16T07:59:31.730Z,18.22
2023-05-16T08:01:04.198Z,18.23
2023-05-16T08:02:36.609Z,18.25
2023-05-16T08:04:08.865Z,18.31
2023-05-16T08:05:40.868Z,18.37
2023-05-16T08:07:12.524Z,18.45
2023-05-16T08:08:44.090Z,18.58
2023-05-16T08:10:15.980Z,18.70
2023-05-16T08:11:47.869Z,18.78
2023-05-16T08:13:19.485Z,18.90
2023-05-16T08:14:51.086Z,19.01
2023-05-16T08:16:22.685Z,19.14
2023-05-16T08:18:00.156Z,19.24
2023-05-16T08:19:33.518Z,19.29
2023-05-16T08:21:05.588Z,19.33
2023-05-16T08:22:38.037Z,19.39
2023-05-16T08:24:11.417Z,19.48
2023-05-16T08:25:43.494Z,19.48
2023-05-16T08:27:15.375Z,19.53
2023-05-16T08:28:46.927Z,19.59
2023-05-16T08:30:18.630Z,19.68
2023-05-16T08:31:50.761Z,19.74
2023-05-16T08:33:22.573Z,19.81
2023-05-16T08:34:54.139Z,19.90
2023-05-16T08:36:26.615Z,19.99
2023-05-16T08:37:58.334Z,20.02
2023-05-16T08:39:30.947Z,20.08
2023-05-16T08:41:02.613Z,20.11
2023-05-16T08:42:34.866Z,20.14
2023-05-16T08:44:06.942Z,20.11
2023-05-16T08:45:39.134Z,20.15
2023-05-16T08:47:15.224Z,20.20
2023-05-16T08:48:47.100Z,20.27
2023-05-16T08:50:18.681Z,20.37
2023-05-16T08:51:51.783Z,20.43
2023-05-16T08:53:27.815Z,20.44
2023-05-16T08:55:10.132Z,20.42
2023-05-16T08:56:43.261Z,20.40
2023-05-16T08:58:15.171Z,20.38
2023-05-16T08:59:46.932Z,20.37
2023-05-16T09:01:18.809Z,20.32
2023-05-16T09:02:50.516Z,20.32
2023-05-16T09:04:22.281Z,20.28
2023-05-16T09:05:53.979Z,20.30
2023-05-16T09:07:25.764Z,20.31
2023-05-16T09:08:57.352Z,20.30
2023-05-16T09:10:28.998Z,20.26
2023-05-16T09:12:00.555Z,20.23
2023-05-16T09:13:32.219Z,20.17
2023-05-16T09:15:05.329Z,20.16
2023-05-16T09:16:37.471Z,20.22
2023-05-16T09:18:12.025Z,20.25
2023-05-16T09:19:43.848Z,20.33
2023-05-16T09:21:16.159Z,20.39
2023-05-16T09:22:52.042Z,20.46
2023-05-16T09:24:23.617Z,20.54
2023-05-16T09:25:55.208Z,20.65
2023-05-16T09:27:27.162Z,20.74
2023-05-16T09:28:58.755Z,20.85
2023-05-16T09:30:31.655Z,20.94
2023-05-16T09:32:16.569Z,21.07
2023-05-16T09:33:49.763Z,21.20
2023-05-16T09:35:34.993Z,21.21
2023-05-16T09:37:13.331Z,21.35
2023-05-16T09:38:44.910Z,21.35
2023-05-16T09:40:16.591Z,21.28
2023-05-16T09:41:52.054Z,21.22
2023-05-16T09:43:24.934Z,21.22
2023-05-16T09:44:57.367Z,21.21
2023-05-16T09:46:30.519Z,21.26
2023-05-16T09:48:05.892Z,21.31
2023-05-16T09:49:38.522Z,21.36
2023-05-16T09:51:10.921Z,21.40
2023-05-16T09:52:43.981Z,21.41
2023-05-16T09:54:15.897Z,21.45
2023-05-16T09:55:47.827Z,21.51
2023-05-16T09:57:19.942Z,21.54
2023-05-16T09:58:52.277Z,21.54
2023-05-16T10:00:23.956Z,21.57
2023-05-16T10:01:55.838Z,21.69
2023-05-16T10:03:27.636Z,21.75
2023-05-16T10:05:00.335Z,21.77
2023-05-16T10:06:32.244Z,21.79
2023-05-16T10:08:04.696Z,21.87
2023-05-16T10:09:37.414Z,21.90
2023-05-16T10:11:09.624Z,21.93
2023-05-16T10:12:41.621Z,21.93
2023-05-16T10:14:13.568Z,21.99
2023-05-16T10:15:45.150Z,21.99
2023-05-16T10:17:16.799Z,22.01
2023-05-16T10:18:48.476Z,22.08
2023-05-16T10:20:20.194Z,22.19
2023-05-16T10:21:52.736Z,22.19
2023-05-16T10:23:25.275Z,22.19
2023-05-16T10:25:02.283Z,22.23
2023-05-16T10:26:34.475Z,22.27
2023-05-16T10:28:06.545Z,22.29
2023-05-16T10:29:50.431Z,22.29
2023-05-16T10:31:26.338Z,22.29
2023-05-16T10:32:58.045Z,22.35
2023-05-16T10:34:29.740Z,22.41
2023-05-16T10:36:02.422Z,22.48
2023-05-16T10:37:33.941Z,22.54
2023-05-16T10:39:05.689Z,22.62
2023-05-16T10:40:37.925Z,22.79
2023-05-16T10:42:10.025Z,22.87
2023-05-16T10:43:44.573Z,22.78
2023-05-16T10:45:16.724Z,22.69
2023-05-16T10:46:48.683Z,22.58
2023-05-16T10:48:20.862Z,22.46
2023-05-16T10:49:52.701Z,22.44
2023-05-16T10:51:24.223Z,22.39
2023-05-16T10:52:55.850Z,22.33
2023-05-16T10:54:34.200Z,22.32
2023-05-16T10:56:09.596Z,22.37
2023-05-16T10:57:43.932Z,22.38
2023-05-16T10:59:25.288Z,22.46
2023-05-16T11:01:16.790Z,22.45
2023-05-16T11:02:48.772Z,22.44
2023-05-16T11:04:22.624Z,22.48
2023-05-16T11:05:54.498Z,22.50
2023-05-16T11:07:26.810Z,22.46
2023-05-16T11:09:11.223Z,22.45
2023-05-16T11:10:42.950Z,22.44
2023-05-16T11:12:14.961Z,22.43
2023-05-16T11:13:54.561Z,22.46
2023-05-16T11:15:26.623Z,22.49
2023-05-16T11:17:01.586Z,22.43
2023-05-16T11:18:33.532Z,22.37
2023-05-16T11:20:06.217Z,22.30
2023-05-16T11:21:56.816Z,22.21
2023-05-16T11:23:28.856Z,22.17
2023-05-16T11:25:04.787Z,22.09
2023-05-16T11:26:36.530Z,22.07
2023-05-16T11:28:08.477Z,22.03
2023-05-16T11:29:40.405Z,22.02
2023-05-16T11:31:15.161Z,22.04
2023-05-16T11:32:47.169Z,22.01
2023-05-16T11:34:19.260Z,21.98
2023-05-16T11:36:14.402Z,21.93
2023-05-16T11:37:47.600Z,21.86
2023-05-16T11:39:23.203Z,21.86
2023-05-16T11:40:54.991Z,21.87
2023-05-16T11:42:32.370Z,21.88
2023-05-16T11:44:06.092Z,21.92
2023-05-16T11:45:37.839Z,21.97
2023-05-16T11:47:10.232Z,22.05
2023-05-16T11:48:42.972Z,22.04
2023-05-16T11:50:16.382Z,22.02
2023-05-16T11:51:48.070Z,22.01
2023-05-16T11:53:20.166Z,22.03
2023-05-16T11:54:51.898Z,22.08
2023-05-16T11:56:24.220Z,22.10
2023-05-16T11:57:56.702Z,22.11
2023-05-16T11:59:28.554Z,22.14
2023-05-16T12:01:00.154Z,22.16
2023-05-16T12:02:32.793Z,22.15
2023-05-16T12:04:14.666Z,22.17
2023-05-16T12:05:56.912Z,22.16
2023-05-16T12:07:28.650Z,22.12
2023-05-16T12:09:03.932Z,22.17
2023-05-16T12:10:35.529Z,22.10
2023-05-16T12:12:07.461Z,22.14
2023-05-16T12:13:39.133Z,22.16
2023-05-16T12:15:11.369Z,22.19
2023-05-16T12:16:44.334Z,22.18
2023-05-16T12:18:16.122Z,22.16
2023-05-16T12:19:48.171Z,22.22
2023-05-16T12:21:19.779Z,22.27
2023-05-16T12:22:51.416Z,22.31
2023-05-16T12:24:30.366Z,22.35
2023-05-16T12:26:06.984Z,22.44
2023-05-16T12:27:40.962Z,22.46
2023-05-16T12:29:12.644Z,22.46
2023-05-16T12:30:44.731Z,22.43
2023-05-16T12:32:22.428Z,22.41
2023-05-16T12:33:55.183Z,22.50
2023-05-16T12:35:29.976Z,22.48
2023-05-16T12:37:02.200Z,22.44
2023-05-16T12:38:34.501Z,22.34
2023-05-16T12:40:09.146Z,22.25
2023-05-16T12:41:42.299Z,22.14
2023-05-16T12:43:14.632Z,22.04
2023-05-16T12:44:47.178Z,22.00
2023-05-16T12:46:20.004Z,22.01
2023-05-16T12:47:51.708Z,22.01
2023-05-16T12:49:23.452Z,21.99
2023-05-16T12:50:55.161Z,21.99
2023-05-16T12:52:29.073Z,22.02
2023-05-16T12:54:10.115Z,22.01
2023-05-16T12:55:42.381Z,21.97
2023-05-16T12:57:14.343Z,21.96
2023-05-16T12:58:45.951Z,21.97
2023-05-16T13:00:22.316Z,22.01
2023-05-16T13:01:53.973Z,22.02
2023-05-16T13:03:25.948Z,21.97
2023-05-16T13:04:58.100Z,21.97
2023-05-16T13:06:36.750Z,21.96
2023-05-16T13:08:17.525Z,21.94
2023-05-16T13:09:49.329Z,21.93
2023-05-16T13:11:21.079Z,21.95
2023-05-16T13:12:52.913Z,21.98
2023-05-16T13:14:24.515Z,21.95
2023-05-16T13:15:56.344Z,21.96
2023-05-16T13:17:30.436Z,21.98
2023-05-16T13:19:02.736Z,22.00
2023-05-16T13:20:34.345Z,22.00
2023-05-16T13:22:06.011Z,22.00
2023-05-16T13:23:37.979Z,22.01
2023-05-16T13:25:10.724Z,21.98
2023-05-16T13:26:42.339Z,21.87
2023-05-16T13:28:13.915Z,21.71
2023-05-16T13:29:45.650Z,21.58
2023-05-16T13:31:17.708Z,21.54
2023-05-16T13:32:50.393Z,21.50
2023-05-16T13:34:22.237Z,21.50
2023-05-16T13:35:55.484Z,21.55
2023-05-16T13:37:28.280Z,21.56
2023-05-16T13:39:02.992Z,21.55
2023-05-16T13:40:35.648Z,21.45
2023-05-16T13:42:07.415Z,21.39
2023-05-16T13:43:45.013Z,21.30
2023-05-16T13:45:16.684Z,21.19
2023-05-16T13:46:49.188Z,21.10
2023-05-16T13:48:21.019Z,21.04
2023-05-16T13:49:52.693Z,20.93
2023-05-16T13:51:24.308Z,20.80
2023-05-16T13:52:56.234Z,20.72
2023-05-16T13:54:28.012Z,20.67
2023-05-16T13:55:59.592Z,20.63
2023-05-16T13:57:32.160Z,20.58
2023-05-16T13:59:06.899Z,20.50
2023-05-16T14:00:45.843Z,20.41
2023-05-16T14:02:17.884Z,20.32
2023-05-16T14:03:49.774Z,20.25
2023-05-16T14:05:21.432Z,20.22
2023-05-16T14:06:53.324Z,20.19
2023-05-16T14:08:24.848Z,20.22
2023-05-16T14:09:56.662Z,20.26
2023-05-16T14:11:29.474Z,20.21
2023-05-16T14:13:01.455Z,20.20
2023-05-16T14:14:33.744Z,20.22
2023-05-16T14:16:05.583Z,20.22
2023-05-16T14:17:37.575Z,20.12
2023-05-16T14:19:09.859Z,20.05
2023-05-16T14:20:43.184Z,20.02
2023-05-16T14:22:15.242Z,19.97
2023-05-16T14:23:47.581Z,19.91
2023-05-16T14:25:20.785Z,19.90
2023-05-16T14:26:58.567Z,19.83
2023-05-16T14:28:30.576Z,19.69
2023-05-16T14:30:02.282Z,19.55
2023-05-16T14:31:34.019Z,19.45
2023-05-16T14:33:06.712Z,19.36
2023-05-16T14:34:38.410Z,19.37
2023-05-16T14:36:10.440Z,19.43
2023-05-16T14:37:42.238Z,19.41
2023-05-16T14:39:14.689Z,19.39
2023-05-16T14:40:46.596Z,19.39
2023-05-16T14:42:18.345Z,19.41
2023-05-16T14:43:50.983Z,19.41
2023-05-16T14:45:22.569Z,19.41
2023-05-16T14:46:54.876Z,19.39
2023-05-16T14:48:28.149Z,19.35
2023-05-16T14:50:00.769Z,19.29
2023-05-16T14:51:32.739Z,19.26
2023-05-16T14:53:04.589Z,19.19
2023-05-16T14:54:37.020Z,19.15
2023-05-16T14:56:08.811Z,19.13
2023-05-16T14:57:42.177Z,19.08
2023-05-16T14:59:17.118Z,19.02
2023-05-16T15:00:49.189Z,18.93
2023-05-16T15:02:21.198Z,18.91
2023-05-16T15:03:55.785Z,18.92
2023-05-16T15:05:29.381Z,18.98
2023-05-16T15:07:01.226Z,18.99
2023-05-16T15:08:34.280Z,19.03
2023-05-16T15:10:07.047Z,19.11
2023-05-16T15:11:38.693Z,19.18
2023-05-16T15:13:10.821Z,19.20
2023-05-16T15:14:42.556Z,19.24
2023-05-16T15:16:14.355Z,19.25
2023-05-16T15:17:46.497Z,19.23
2023-05-16T15:19:18.197Z,19.25
2023-05-16T15:20:52.188Z,19.28
2023-05-16T15:22:23.723Z,19.32
2023-05-16T15:23:58.027Z,19.29
2023-05-16T15:25:30.200Z,19.28
2023-05-16T15:27:02.060Z,19.30
2023-05-16T15:28:33.823Z,19.25
2023-05-16T15:30:05.701Z,19.15
2023-05-16T15:31:37.940Z,19.04
2023-05-16T15:33:09.662Z,18.91
2023-05-16T15:34:41.395Z,18.77
2023-05-16T15:36:13.457Z,18.61
2023-05-16T15:37:45.287Z,18.49
2023-05-16T15:39:17.079Z,18.36
2023-05-16T15:40:55.073Z,18.30
2023-05-16T15:42:33.244Z,18.22
2023-05-16T15:44:05.123Z,18.11
2023-05-16T15:45:40.109Z,18.05
2023-05-16T15:47:12.086Z,17.96
2023-05-16T15:48:45.080Z,17.88
2023-05-16T15:50:16.946Z,17.84
2023-05-16T15:51:48.587Z,17.83
2023-05-16T15:53:20.301Z,17.80
2023-05-16T15:54:52.124Z,17.79
2023-05-16T15:56:23.718Z,17.78
2023-05-16T15:57:57.671Z,17.75
2023-05-16T15:59:29.666Z,17.72
2023-05-16T16:01:01.656Z,17.71
2023-05-16T16:02:33.831Z,17.77
2023-05-16T16:04:05.796Z,17.80
2023-05-16T16:05:37.884Z,17.84
2023-05-16T16:07:10.990Z,17.84
2023-05-16T16:08:42.578Z,17.85
2023-05-16T16:10:14.446Z,17.91
2023-05-16T16:11:46.276Z,17.92
2023-05-16T16:13:18.139Z,17.94
2023-05-16T16:14:49.958Z,17.98
2023-05-16T16:16:22.002Z,17.97
2023-05-16T16:17:53.622Z,17.96
2023-05-16T16:19:26.704Z,17.98
2023-05-16T16:20:58.864Z,18.01
2023-05-16T16:22:31.310Z,18.07
2023-05-16T16:24:03.357Z,18.12
2023-05-16T16:25:35.489Z,18.17
2023-05-16T16:27:07.139Z,18.20
2023-05-16T16:28:38.676Z,18.27
2023-05-16T16:30:10.515Z,18.32
2023-05-16T16:31:42.186Z,18.35
2023-05-16T16:33:14.023Z,18.41
2023-05-16T16:34:45.718Z,18.45
2023-05-16T16:36:17.424Z,18.50
2023-05-16T16:38:04.947Z,18.50
2023-05-16T16:41:10.294Z,18.49
2023-05-16T16:42:42.132Z,18.47
2023-05-16T16:44:14.275Z,18.44
2023-05-16T16:45:45.873Z,18.42
2023-05-16T16:47:17.926Z,18.40
2023-05-16T16:48:52.367Z,18.39
2023-05-16T16:50:24.203Z,18.38
2023-05-16T16:51:55.902Z,18.37
2023-05-16T16:53:27.789Z,18.35
2023-05-16T16:54:59.646Z,18.32
2023-05-16T16:56:31.698Z,18.29
2023-05-16T16:58:03.741Z,18.27
2023-05-16T16:59:35.790Z,18.23
2023-05-16T17:01:07.459Z,18.26
2023-05-16T17:02:39.380Z,18.27
2023-05-16T17:04:11.545Z,18.25
2023-05-16T17:05:44.650Z,18.22
2023-05-16T17:07:16.320Z,18.16
2023-05-16T17:08:48.376Z,18.13
2023-05-16T17:10:21.112Z,18.05
2023-05-16T17:11:52.974Z,18.02
2023-05-16T17:13:24.644Z,18.02
2023-05-16T17:14:57.349Z,18.04
2023-05-16T17:16:29.552Z,18.04
2023-05-16T17:18:01.580Z,18.01
2023-05-16T17:19:33.568Z,17.97
2023-05-16T17:21:05.672Z,17.97
2023-05-16T17:22:37.692Z,17.96
2023-05-16T17:24:09.786Z,18.00
2023-05-16T17:25:42.215Z,18.03
2023-05-16T17:27:13.923Z,18.05
2023-05-16T17:28:46.486Z,18.08
2023-05-16T17:30:18.784Z,18.11
2023-05-16T17:31:51.008Z,18.11
2023-05-16T17:33:22.880Z,18.11
2023-05-16T17:34:55.421Z,18.06
2023-05-16T17:36:27.076Z,18.02
2023-05-16T17:37:59.407Z,17.95
2023-05-16T17:39:31.029Z,17.86
2023-05-16T17:41:02.980Z,17.83
2023-05-16T17:42:34.630Z,17.78
2023-05-16T17:44:07.137Z,17.77
2023-05-16T17:45:39.058Z,17.76
2023-05-16T17:47:11.628Z,17.73
2023-05-16T17:48:44.274Z,17.73
2023-05-16T17:50:16.178Z,17.73
2023-05-16T17:51:51.925Z,17.70
2023-05-16T17:53:23.993Z,17.68
2023-05-16T17:54:55.758Z,17.65
2023-05-16T17:56:27.379Z,17.61
2023-05-16T17:57:59.086Z,17.58
2023-05-16T17:59:30.933Z,17.60
2023-05-16T18:01:07.060Z,17.62
2023-05-16T18:02:39.828Z,17.66
2023-05-16T18:04:11.874Z,17.69
2023-05-16T18:05:43.694Z,17.71
2023-05-16T18:07:15.553Z,17.72
2023-05-16T18:08:47.316Z,17.74
2023-05-16T18:10:19.189Z,17.77
2023-05-16T18:11:50.790Z,17.75
2023-05-16T18:13:22.355Z,17.73
2023-05-16T18:14:53.927Z,17.71
2023-05-16T18:16:25.750Z,17.68
2023-05-16T18:17:57.406Z,17.63
2023-05-16T18:19:29.165Z,17.57
2023-05-16T18:21:01.349Z,17.55
2023-05-16T18:22:34.132Z,17.57
2023-05-16T18:24:08.711Z,17.57
2023-05-16T18:25:40.507Z,17.55
2023-05-16T18:27:12.916Z,17.57
2023-05-16T18:28:44.750Z,17.55
2023-05-16T18:30:16.688Z,17.59
2023-05-16T18:31:48.895Z,17.64
2023-05-16T18:33:20.478Z,17.65
2023-05-16T18:34:52.109Z,17.68
2023-05-16T18:36:23.631Z,17.71
2023-05-16T18:37:55.281Z,17.70
2023-05-16T18:39:27.093Z,17.67
2023-05-16T18:40:58.721Z,17.73
2023-05-16T18:42:30.356Z,17.81
2023-05-16T18:44:01.942Z,17.83
2023-05-16T18:45:34.137Z,17.80
2023-05-16T18:47:06.456Z,17.84
2023-05-16T18:48:38.346Z,17.88
2023-05-16T18:50:10.626Z,17.89
2023-05-16T18:51:42.695Z,17.89
2023-05-16T18:53:14.400Z,17.89
2023-05-16T18:54:46.179Z,17.88
2023-05-16T18:56:18.482Z,17.88
2023-05-16T18:57:50.398Z,17.88
2023-05-16T18:59:22.249Z,17.92
2023-05-16T19:00:53.823Z,17.93
2023-05-16T19:02:40.505Z,17.90
2023-05-16T19:04:13.542Z,17.89
2023-05-16T19:05:45.371Z,17.86
2023-05-16T19:07:17.498Z,17.86
2023-05-16T19:08:49.152Z,17.91
2023-05-16T19:10:20.852Z,17.89
2023-05-16T19:11:52.663Z,17.92
2023-05-16T19:13:24.311Z,17.90
2023-05-16T19:14:56.773Z,17.89
2023-05-16T19:16:28.374Z,17.86
2023-05-16T19:18:00.077Z,17.85
2023-05-16T19:19:31.867Z,17.85
2023-05-16T19:21:03.805Z,17.85
2023-05-16T19:22:35.784Z,17.84
2023-05-16T19:24:07.642Z,17.83
2023-05-16T19:25:45.785Z,17.82
2023-05-16T19:27:17.369Z,17.82
2023-05-16T19:28:49.223Z,17.81
2023-05-16T19:30:21.015Z,17.78
2023-05-16T19:31:52.902Z,17.76
2023-05-16T19:33:24.616Z,17.74
2023-05-16T19:34:57.020Z,17.71
2023-05-16T19:36:28.602Z,17.73
2023-05-16T19:38:00.205Z,17.71
2023-05-16T19:39:32.464Z,17.70
2023-05-16T19:41:04.004Z,17.64
2023-05-16T19:42:35.895Z,17.63
2023-05-16T19:44:07.644Z,17.61
2023-05-16T19:45:39.474Z,17.59
2023-05-16T19:47:11.609Z,17.61
2023-05-16T19:48:43.190Z,17.61
2023-05-16T19:50:15.152Z,17.63
2023-05-16T19:51:47.040Z,17.63
2023-05-16T19:53:18.717Z,17.62
2023-05-16T19:54:50.305Z,17.59